Time,TemperatureF,DewpointF,PressureIn,WindDirection,WindDirectionDegrees,WindSpeedMPH,WindSpeedGustMPH,Humidity,HourlyPrecipIn,Conditions,Clouds,dailyrainin,SoftwareType,DateUTC
2013-11-05 03:25:00,26.4,22.8,30.15,North,-999,0.0,0.0,86,0.00,,,-99.99,FreeWX-Wi 1.01,2013-11-05 09:25:00,
2013-11-05 03:35:00,26.2,22.6,30.15,North,-999,0.0,0.0,86,0.00,,,-99.99,FreeWX-Wi 1.01,2013-11-05 09:35:00,
2013-11-05 03:45:00,26.2,22.6,30.15,North,-999,0.0,0.0,86,0.00,,,-99.99,FreeWX-Wi 1.01,2013-11-05 09:45:00,
2013-11-05 03:55:00,26.6,23.2,30.15,North,-999,0.0,0.0,87,0.00,,,-99.99,FreeWX-Wi 1.01,2013-11-05 09:55:00,
2013-11-05 04:05:00,26.1,22.5,30.15,North,-999,0.0,0.0,86,0.00,,,-99.99,FreeWX-Wi 1.01,2013-11-05 10:05:00,
2013-11-05 04:15:00,25.3,21.7,30.15,North,-999,0.0,2.2,86,0.00,,,-99.99,FreeWX-Wi 1.01,2013-11-05 10:15:00,
2013-11-05 04:25:00,24.8,21.2,30.18,North,-999,0.0,0.0,86,0.00,,,-99.99,FreeWX-Wi 1.01,2013-11-05 10:25:00,
2013-11-05 04:35:00,24.6,21.0,30.18,North,-999,0.0,3.6,86,0.00,,,-99.99,FreeWX-Wi 1.01,2013-11-05 10:35:00,
2013-11-05 04:45:00,25.2,21.9,30.18,North,-999,0.0,0.0,87,0.00,,,-99.99,FreeWX-Wi 1.01,2013-11-05 10:45:00,
2013-11-05 04:55:00,25.2,21.9,30.18,North,-999,0.0,0.0,87,0.00,,,-99.99,FreeWX-Wi 1.01,2013-11-05 10:55:00,
2013-11-05 05:05:00,25.0,21.7,30.18,North,-999,0.0,0.0,87,0.00,,,-99.99,FreeWX-Wi 1.01,2013-11-05 11:05:00,
2013-11-05 05:15:00,24.6,21.4,30.18,North,-999,0.0,0.0,87,0.00,,,-99.99,FreeWX-Wi 1.01,2013-11-05 11:15:00,
2013-11-05 05:25:00,24.4,21.2,30.21,North,-999,0.0,0.0,87,0.00,,,-99.99,FreeWX-Wi 1.01,2013-11-05 11:25:00,
2013-11-05 05:35:00,24.4,21.2,30.21,North,-999,0.0,0.0,87,0.00,,,-99.99,FreeWX-Wi 1.01,2013-11-05 11:35:00,
2013-11-05 05:45:00,24.4,21.2,30.21,North,-999,0.0,2.2,87,0.00,,,-99.99,FreeWX-Wi 1.01,2013-11-05 11:45:00,
2013-11-05 05:55:00,24.6,21.4,30.21,North,-999,0.0,0.0,87,0.00,,,-99.99,FreeWX-Wi 1.01,2013-11-05 11:55:00,
2013-11-05 06:05:00,24.8,21.7,30.21,North,-999,0.0,2.2,88,0.00,,,-99.99,FreeWX-Wi 1.01,2013-11-05 12:05:00,
2013-11-05 06:15:00,24.8,21.7,30.18,North,-999,0.0,2.2,88,0.00,,,-99.99,FreeWX-Wi 1.01,2013-11-05 12:15:00,
2013-11-05 06:25:00,25.3,22.3,30.21,North,-999,0.0,0.0,88,0.00,,,-99.99,FreeWX-Wi 1.01,2013-11-05 12:25:00,
2013-11-05 06:35:00,25.5,22.5,30.21,North,-999,0.0,0.0,88,0.00,,,-99.99,FreeWX-Wi 1.01,2013-11-05 12:35:00,
2013-11-05 06:45:00,25.9,22.8,30.18,North,-999,0.0,0.0,88,0.00,,,-99.99,FreeWX-Wi 1.01,2013-11-05 12:45:00,
2013-11-05 06:56:00,26.1,23.0,30.18,North,-999,0.0,0.0,88,0.00,,,-99.99,FreeWX-Wi 1.01,2013-11-05 12:56:00,
2013-11-05 07:06:00,26.2,23.2,30.18,North,-999,0.0,0.0,88,0.00,,,-99.99,FreeWX-Wi 1.01,2013-11-05 13:06:00,
2013-11-05 07:16:00,26.2,23.2,30.18,North,-999,0.0,0.0,88,0.00,,,-99.99,FreeWX-Wi 1.01,2013-11-05 13:16:00,
2013-11-05 07:26:00,26.1,23.0,30.18,North,-999,0.0,0.0,88,0.00,,,-99.99,FreeWX-Wi 1.01,2013-11-05 13:26:00,
2013-11-05 07:36:00,26.2,23.2,30.18,North,-999,0.0,0.0,88,0.00,,,-99.99,FreeWX-Wi 1.01,2013-11-05 13:36:00,
2013-11-05 07:46:00,26.6,23.7,30.18,North,-999,0.0,0.0,89,0.00,,,-99.99,FreeWX-Wi 1.01,2013-11-05 13:46:00,
2013-11-05 07:56:00,26.8,23.9,30.18,North,-999,0.0,0.0,89,0.00,,,-99.99,FreeWX-Wi 1.01,2013-11-05 13:56:00,
2013-11-05 08:06:00,27.0,24.1,30.18,North,-999,0.0,0.0,89,0.00,,,-99.99,FreeWX-Wi 1.01,2013-11-05 14:06:00,
2013-11-05 08:16:00,27.3,24.4,30.18,North,-999,0.0,0.0,89,0.00,,,-99.99,FreeWX-Wi 1.01,2013-11-05 14:16:00,
2013-11-05 08:26:00,27.9,25.0,30.21,North,-999,0.0,0.0,89,0.00,,,-99.99,FreeWX-Wi 1.01,2013-11-05 14:26:00,
2013-11-05 08:36:00,28.4,25.9,30.21,North,-999,0.0,0.0,90,0.00,,,-99.99,FreeWX-Wi 1.01,2013-11-05 14:36:00,
2013-11-05 08:46:00,28.8,26.2,30.21,North,-999,0.0,0.0,90,0.00,,,-99.99,FreeWX-Wi 1.01,2013-11-05 14:46:00,
2013-11-05 08:56:00,29.5,27.0,30.21,North,-999,0.0,0.0,90,0.00,,,-99.99,FreeWX-Wi 1.01,2013-11-05 14:56:00,
2013-11-05 09:06:00,30.0,27.7,30.21,North,-999,0.0,0.0,91,0.00,,,-99.99,FreeWX-Wi 1.01,2013-11-05 15:06:00,
2013-11-05 09:16:00,30.7,28.4,30.21,North,-999,0.0,0.0,91,0.00,,,-99.99,FreeWX-Wi 1.01,2013-11-05 15:16:00,
2013-11-05 09:26:00,31.5,29.1,30.21,North,-999,0.0,0.0,91,0.00,,,-99.99,FreeWX-Wi 1.01,2013-11-05 15:26:00,
2013-11-05 09:36:00,32.0,30.0,30.21,North,-999,0.0,0.0,92,0.00,,,-99.99,FreeWX-Wi 1.01,2013-11-05 15:36:00,
2013-11-05 09:46:00,32.5,30.6,30.21,North,-999,0.0,0.0,92,0.00,,,-99.99,FreeWX-Wi 1.01,2013-11-05 15:46:00,
2013-11-05 09:56:00,33.1,31.3,30.21,North,-999,0.0,3.6,93,0.00,,,-99.99,FreeWX-Wi 1.01,2013-11-05 15:56:00,
2013-11-05 10:06:00,34.2,32.5,30.21,North,-999,0.0,2.7,94,0.00,,,-99.99,FreeWX-Wi 1.01,2013-11-05 16:06:00,
2013-11-05 10:16:00,35.2,34.0,30.21,North,-999,0.0,4.0,95,0.00,,,-99.99,FreeWX-Wi 1.01,2013-11-05 16:16:00,
2013-11-05 10:26:00,36.1,35.1,30.21,SE,126,1.0,4.9,96,0.00,,,-99.99,FreeWX-Wi 1.01,2013-11-05 16:26:00,
2013-11-05 10:36:00,37.0,36.0,30.21,SSE,156,2.0,5.4,96,0.00,,,-99.99,FreeWX-Wi 1.01,2013-11-05 16:36:00,
2013-11-05 10:46:00,37.4,36.1,30.21,SSE,165,2.0,5.8,95,0.00,,,-99.99,FreeWX-Wi 1.01,2013-11-05 16:46:00,
2013-11-05 10:56:00,37.6,35.2,30.21,SSE,165,3.0,5.8,91,0.00,,,-99.99,FreeWX-Wi 1.01,2013-11-05 16:56:00,
2013-11-05 11:06:00,37.9,26.4,30.21,South,178,3.0,5.8,63,0.00,,,-99.99,FreeWX-Wi 1.01,2013-11-05 17:06:00,
2013-11-05 11:16:00,38.7,25.5,30.21,South,184,3.0,4.9,59,0.00,,,-99.99,FreeWX-Wi 1.01,2013-11-05 17:16:00,
2013-11-05 11:26:00,39.4,24.1,30.21,South,182,3.0,6.3,54,0.00,,,-99.99,FreeWX-Wi 1.01,2013-11-05 17:26:00,
2013-11-05 11:36:00,39.7,24.1,30.21,South,174,3.0,5.8,53,0.00,,,-99.99,FreeWX-Wi 1.01,2013-11-05 17:36:00,
2013-11-05 11:46:00,39.9,19.8,30.21,South,174,4.0,7.2,44,0.00,,,-99.99,FreeWX-Wi 1.01,2013-11-05 17:46:00,
2013-11-05 11:56:00,40.3,23.2,30.21,South,173,4.0,6.3,50,0.00,,,-99.99,FreeWX-Wi 1.01,2013-11-05 17:56:00,
2013-11-05 12:06:00,40.3,18.5,30.21,South,176,5.0,8.3,41,0.00,,,-99.99,FreeWX-Wi 1.01,2013-11-05 18:06:00,
2013-11-05 12:16:00,40.3,17.2,30.18,South,177,5.0,7.6,39,0.00,,,-99.99,FreeWX-Wi 1.01,2013-11-05 18:16:00,
2013-11-05 12:26:00,40.5,19.2,30.18,South,175,5.0,6.3,42,0.00,,,-99.99,FreeWX-Wi 1.01,2013-11-05 18:26:00,
2013-11-05 12:36:00,40.6,18.1,30.18,South,175,4.0,6.3,40,0.00,,,-99.99,FreeWX-Wi 1.01,2013-11-05 18:36:00,
2013-11-05 12:46:00,40.8,17.8,30.18,South,177,4.0,6.3,39,0.00,,,-99.99,FreeWX-Wi 1.01,2013-11-05 18:46:00,
2013-11-05 12:56:00,40.8,18.3,30.18,South,180,4.0,5.8,40,0.00,,,-99.99,FreeWX-Wi 1.01,2013-11-05 18:56:00,
2013-11-05 13:06:00,40.8,17.8,30.18,South,185,3.0,6.3,39,0.00,,,-99.99,FreeWX-Wi 1.01,2013-11-05 19:06:00,
2013-11-05 13:16:00,41.0,18.0,30.15,South,191,3.0,5.8,39,0.00,,,-99.99,FreeWX-Wi 1.01,2013-11-05 19:16:00,
2013-11-05 13:26:00,41.0,18.0,30.15,SSW,204,3.0,4.9,39,0.00,,,-99.99,FreeWX-Wi 1.01,2013-11-05 19:26:00,
2013-11-05 13:36:00,41.0,17.4,30.15,SSW,203,3.0,7.6,38,0.00,,,-99.99,FreeWX-Wi 1.01,2013-11-05 19:36:00,
2013-11-05 13:46:00,41.0,15.4,30.12,SSW,195,4.0,6.3,35,0.00,,,-99.99,FreeWX-Wi 1.01,2013-11-05 19:46:00,
2013-11-05 13:56:00,40.8,14.7,30.12,South,182,5.0,8.3,34,0.00,,,-99.99,FreeWX-Wi 1.01,2013-11-05 19:56:00,
2013-11-05 14:06:00,40.5,13.6,30.12,South,181,5.0,8.7,33,0.00,,,-99.99,FreeWX-Wi 1.01,2013-11-05 20:06:00,
2013-11-05 14:16:00,40.5,14.4,30.12,South,183,5.0,8.1,34,0.00,,,-99.99,FreeWX-Wi 1.01,2013-11-05 20:16:00,
2013-11-05 19:36:00,32.5,29.1,30.03,SSW,194,4.0,6.3,87,0.00,,,-99.99,FreeWX-Wi 1.01,2013-11-06 01:36:00,
2013-11-05 19:46:00,32.5,29.1,30.03,SSW,193,4.0,5.4,87,0.00,,,-99.99,FreeWX-Wi 1.01,2013-11-06 01:46:00,
2013-11-05 19:56:00,32.5,29.1,30.03,SSW,193,4.0,6.7,87,0.00,,,-99.99,FreeWX-Wi 1.01,2013-11-06 01:56:00,
2013-11-05 20:06:00,32.5,29.3,30.03,SSW,192,4.0,5.8,88,0.00,,,-99.99,FreeWX-Wi 1.01,2013-11-06 02:06:00,
2013-11-05 20:16:00,32.5,29.3,30.03,SSW,192,4.0,5.8,88,0.00,,,-99.99,FreeWX-Wi 1.01,2013-11-06 02:16:00,
2013-11-05 20:26:00,32.5,29.7,30.03,South,189,4.0,8.3,89,0.00,,,-99.99,FreeWX-Wi 1.01,2013-11-06 02:26:00,
2013-11-05 20:36:00,32.5,29.7,30.03,South,185,4.0,6.3,89,0.00,,,-99.99,FreeWX-Wi 1.01,2013-11-06 02:36:00,
2013-11-05 20:46:00,32.5,30.0,30.03,South,181,4.0,6.3,90,0.00,,,-99.99,FreeWX-Wi 1.01,2013-11-06 02:46:00,
2013-11-05 20:56:00,32.5,30.0,30.03,South,177,4.0,8.1,90,0.00,,,-99.99,FreeWX-Wi 1.01,2013-11-06 02:56:00,
2013-11-05 21:06:00,32.5,30.2,30.03,South,177,4.0,6.7,91,0.00,,,-99.99,FreeWX-Wi 1.01,2013-11-06 03:06:00,
2013-11-05 21:16:00,32.5,30.6,30.03,South,175,4.0,6.3,92,0.00,,,-99.99,FreeWX-Wi 1.01,2013-11-06 03:16:00,
2013-11-05 21:26:00,32.5,30.6,30.03,South,173,4.0,6.7,92,0.00,,,-99.99,FreeWX-Wi 1.01,2013-11-06 03:26:00,
2013-11-05 21:36:00,32.5,30.7,30.03,South,171,4.0,8.1,93,0.00,,,-99.99,FreeWX-Wi 1.01,2013-11-06 03:36:00,
2013-11-05 21:46:00,32.5,30.7,30.03,South,172,4.0,7.6,93,0.00,,,-99.99,FreeWX-Wi 1.01,2013-11-06 03:46:00,
2013-11-05 21:56:00,32.5,30.7,30.03,South,175,4.0,7.6,93,0.00,,,-99.99,FreeWX-Wi 1.01,2013-11-06 03:56:00,
2013-11-05 22:06:00,32.5,30.9,30.03,South,175,4.0,8.1,94,0.00,,,-99.99,FreeWX-Wi 1.01,2013-11-06 04:06:00,
2013-11-05 22:16:00,32.5,30.9,30.03,South,174,5.0,8.1,94,0.00,,,-99.99,FreeWX-Wi 1.01,2013-11-06 04:16:00,
2013-11-05 22:26:00,32.5,30.9,30.03,South,173,5.0,7.2,94,0.00,,,-99.99,FreeWX-Wi 1.01,2013-11-06 04:26:00,
2013-11-05 22:36:00,32.5,31.3,30.03,South,173,5.0,8.7,95,0.00,,,-99.99,FreeWX-Wi 1.01,2013-11-06 04:36:00,
2013-11-05 22:46:00,32.5,31.5,30.03,South,171,5.0,7.6,96,0.00,,,-99.99,FreeWX-Wi 1.01,2013-11-06 04:46:00,
2013-11-05 22:56:00,32.5,31.5,30.03,South,172,5.0,8.3,96,0.00,,,-99.99,FreeWX-Wi 1.01,2013-11-06 04:56:00,
2013-11-05 23:06:00,32.5,31.8,30.03,South,170,5.0,8.7,97,0.00,,,-99.99,FreeWX-Wi 1.01,2013-11-06 05:06:00,
2013-11-05 23:16:00,32.5,31.8,30.03,South,171,5.0,8.7,97,0.00,,,-99.99,FreeWX-Wi 1.01,2013-11-06 05:16:00,
2013-11-05 23:26:00,32.5,31.8,30.03,South,171,5.0,10.1,97,0.00,,,-99.99,FreeWX-Wi 1.01,2013-11-06 05:26:00,
2013-11-05 23:36:00,32.7,32.2,30.03,South,172,5.0,8.3,98,0.00,,,-99.99,FreeWX-Wi 1.01,2013-11-06 05:36:00,
2013-11-05 23:46:00,32.7,32.2,30.03,South,174,5.0,8.7,98,0.00,,,-99.99,FreeWX-Wi 1.01,2013-11-06 05:46:00,
2013-11-05 23:56:00,32.7,32.2,30.03,South,175,5.0,11.9,98,0.00,,,-99.99,FreeWX-Wi 1.01,2013-11-06 05:56:00,